createdAt,value
2023-03-03T00:00:46.421Z,980.96
2023-03-03T00:01:46.427Z,980.95
2023-03-03T00:02:46.391Z,981.00
2023-03-03T00:03:46.438Z,980.96
2023-03-03T00:04:46.354Z,981.00
2023-03-03T00:05:46.341Z,981.07
2023-03-03T00:06:46.378Z,981.06
2023-03-03T00:07:46.330Z,981.03
2023-03-03T00:08:46.330Z,981.03
2023-03-03T00:09:46.288Z,981.01
2023-03-03T00:10:46.296Z,981.01
2023-03-03T00:11:46.287Z,981.04
2023-03-03T00:12:46.251Z,981.00
2023-03-03T00:13:46.251Z,981.00
2023-03-03T00:14:46.260Z,981.08
2023-03-03T00:15:46.250Z,981.05
2023-03-03T00:16:46.219Z,981.04
2023-03-03T00:17:46.192Z,981.03
2023-03-03T00:18:46.179Z,981.04
2023-03-03T00:19:46.172Z,980.95
2023-03-03T00:20:46.169Z,980.91
2023-03-03T00:21:46.174Z,981.00
2023-03-03T00:22:46.121Z,980.96
2023-03-03T00:23:46.114Z,980.95
2023-03-03T00:24:46.109Z,981.01
2023-03-03T00:25:46.091Z,981.00
2023-03-03T00:26:46.080Z,981.02
2023-03-03T00:27:46.097Z,981.08
2023-03-03T00:28:46.053Z,981.04
2023-03-03T00:29:46.060Z,981.03
2023-03-03T00:30:46.022Z,981.06
2023-03-03T00:31:46.022Z,981.03
2023-03-03T00:32:46.015Z,981.00
2023-03-03T00:33:45.991Z,981.05
2023-03-03T00:34:45.971Z,981.09
2023-03-03T00:35:45.993Z,981.06
2023-03-03T00:36:45.966Z,981.04
2023-03-03T00:37:45.944Z,981.03
2023-03-03T00:38:45.915Z,981.10
2023-03-03T00:39:45.923Z,980.98
2023-03-03T00:40:45.904Z,981.06
2023-03-03T00:41:45.907Z,981.06
2023-03-03T00:42:45.884Z,981.08
2023-03-03T00:43:45.876Z,981.06
2023-03-03T00:44:45.843Z,981.11
2023-03-03T00:45:45.846Z,981.02
2023-03-03T00:46:45.864Z,981.09
2023-03-03T00:47:45.828Z,981.14
2023-03-03T00:48:45.792Z,981.11
2023-03-03T00:49:45.804Z,981.16
2023-03-03T00:50:45.784Z,981.18
2023-03-03T00:51:45.774Z,981.16
2023-03-03T00:52:45.771Z,981.14
2023-03-03T00:53:45.733Z,981.17
2023-03-03T00:54:45.741Z,981.16
2023-03-03T00:55:45.723Z,981.16
2023-03-03T00:56:45.712Z,981.13
2023-03-03T00:57:45.696Z,981.09
2023-03-03T00:58:45.675Z,981.09
2023-03-03T00:59:45.666Z,981.11
2023-03-03T01:00:45.668Z,981.13
2023-03-03T01:01:45.745Z,981.09
2023-03-03T01:02:45.673Z,981.13
2023-03-03T01:03:45.623Z,981.09
2023-03-03T01:04:45.613Z,981.19
2023-03-03T01:05:45.609Z,981.14
2023-03-03T01:06:45.590Z,981.15
2023-03-03T01:07:45.581Z,981.17
2023-03-03T01:08:45.546Z,981.17
2023-03-03T01:09:45.532Z,981.16
2023-03-03T01:10:45.523Z,981.10
2023-03-03T01:11:45.522Z,981.18
2023-03-03T01:12:45.531Z,981.12
2023-03-03T01:13:45.497Z,981.16
2023-03-03T01:14:45.502Z,981.16
2023-03-03T01:15:45.485Z,981.14
2023-03-03T01:16:45.445Z,981.14
2023-03-03T01:17:45.456Z,981.13
2023-03-03T01:18:45.417Z,981.17
2023-03-03T01:19:45.425Z,981.11
2023-03-03T01:20:45.417Z,981.10
2023-03-03T01:21:45.506Z,981.13
2023-03-03T01:22:45.395Z,981.12
2023-03-03T01:23:45.371Z,981.12
2023-03-03T01:24:45.352Z,981.16
2023-03-03T01:25:45.332Z,981.09
2023-03-03T01:26:45.325Z,981.13
2023-03-03T01:27:45.325Z,981.13
2023-03-03T01:28:45.289Z,981.16
2023-03-03T01:29:45.281Z,981.14
2023-03-03T01:30:45.283Z,981.15
2023-03-03T01:31:45.252Z,981.11
2023-03-03T01:32:45.252Z,981.15
2023-03-03T01:33:45.233Z,981.15
2023-03-03T01:34:45.226Z,981.17
2023-03-03T01:35:45.244Z,981.10
2023-03-03T01:36:45.189Z,981.15
2023-03-03T01:37:45.195Z,981.11
2023-03-03T01:38:45.160Z,981.11
2023-03-03T01:39:45.143Z,981.10
2023-03-03T01:40:45.131Z,981.10
2023-03-03T01:41:45.149Z,981.10
2023-03-03T01:42:45.117Z,981.05
2023-03-03T01:43:45.120Z,981.04
2023-03-03T01:44:45.095Z,981.05
2023-03-03T01:45:45.074Z,980.96
2023-03-03T01:46:45.123Z,980.94
2023-03-03T01:47:45.071Z,980.98
2023-03-03T01:48:45.045Z,980.98
2023-03-03T01:49:45.029Z,980.92
2023-03-03T01:50:45.008Z,980.98
2023-03-03T01:51:45.013Z,980.94
2023-03-03T01:52:44.999Z,980.98
2023-03-03T01:53:44.991Z,980.98
2023-03-03T01:54:44.964Z,980.98
2023-03-03T01:55:44.967Z,981.01
2023-03-03T01:56:44.938Z,981.00
2023-03-03T01:57:44.936Z,981.06
2023-03-03T01:58:44.949Z,981.01
2023-03-03T01:59:44.916Z,981.02
2023-03-03T02:00:44.883Z,981.00
2023-03-03T02:01:44.953Z,980.98
2023-03-03T02:02:44.924Z,980.98
2023-03-03T02:03:44.856Z,980.96
2023-03-03T02:04:44.830Z,981.01
2023-03-03T02:05:44.837Z,981.01
2023-03-03T02:06:44.810Z,980.97
2023-03-03T02:07:44.805Z,980.98
2023-03-03T02:08:44.833Z,980.92
2023-03-03T02:09:44.782Z,980.99
2023-03-03T02:10:44.743Z,981.01
2023-03-03T02:11:44.764Z,980.95
2023-03-03T02:12:44.742Z,980.95
2023-03-03T02:13:44.750Z,980.89
2023-03-03T02:14:44.696Z,981.01
2023-03-03T02:15:44.713Z,980.91
2023-03-03T02:16:44.701Z,981.00
2023-03-03T02:17:44.696Z,981.02
2023-03-03T02:18:44.669Z,980.96
2023-03-03T02:19:44.675Z,980.98
2023-03-03T02:20:44.635Z,980.98
2023-03-03T02:21:44.620Z,980.94
2023-03-03T02:22:44.607Z,980.88
2023-03-03T02:23:44.609Z,980.97
2023-03-03T02:24:44.592Z,981.01
2023-03-03T02:25:44.568Z,980.90
2023-03-03T02:26:44.592Z,980.97
2023-03-03T02:27:44.562Z,980.95
2023-03-03T02:28:44.551Z,980.89
2023-03-03T02:29:44.546Z,981.00
2023-03-03T02:30:44.541Z,981.01
2023-03-03T02:31:44.574Z,980.96
2023-03-03T02:32:44.503Z,980.98
2023-03-03T02:33:44.529Z,981.02
2023-03-03T02:34:44.461Z,980.92
2023-03-03T02:35:44.497Z,981.07
2023-03-03T02:36:44.440Z,981.01
2023-03-03T02:37:44.421Z,980.99
2023-03-03T02:38:44.422Z,981.04
2023-03-03T02:39:44.413Z,981.04
2023-03-03T02:40:44.395Z,981.02
2023-03-03T02:41:44.372Z,981.00
2023-03-03T02:42:44.383Z,980.99
2023-03-03T02:43:44.360Z,980.96
2023-03-03T02:44:44.356Z,980.93
2023-03-03T02:45:44.392Z,980.95
2023-03-03T02:46:44.329Z,980.93
2023-03-03T02:47:44.290Z,980.93
2023-03-03T02:48:44.307Z,980.91
2023-03-03T02:49:44.276Z,980.92
2023-03-03T02:50:44.256Z,980.91
2023-03-03T02:51:44.236Z,980.95
2023-03-03T02:52:44.245Z,980.97
2023-03-03T02:53:44.237Z,980.95
2023-03-03T02:54:44.246Z,980.92
2023-03-03T02:55:44.194Z,980.93
2023-03-03T02:56:44.184Z,980.89
2023-03-03T02:57:44.165Z,980.91
2023-03-03T02:58:44.185Z,980.96
2023-03-03T02:59:44.144Z,981.00
2023-03-03T03:00:44.148Z,980.93
2023-03-03T03:01:44.106Z,980.98
2023-03-03T03:02:44.114Z,980.97
2023-03-03T03:03:44.087Z,980.92
2023-03-03T03:04:44.107Z,980.97
2023-03-03T03:05:44.062Z,981.03
2023-03-03T03:06:44.057Z,980.95
2023-03-03T03:07:44.034Z,980.99
2023-03-03T03:08:44.022Z,981.03
2023-03-03T03:09:44.041Z,981.01
2023-03-03T03:10:43.993Z,981.02
2023-03-03T03:11:43.993Z,980.94
2023-03-03T03:12:43.986Z,980.97
2023-03-03T03:13:43.963Z,980.98
2023-03-03T03:14:43.983Z,980.94
2023-03-03T03:15:43.936Z,980.91
2023-03-03T03:16:44.100Z,980.95
2023-03-03T03:17:43.936Z,980.94
2023-03-03T03:18:43.904Z,980.95
2023-03-03T03:19:43.902Z,980.94
2023-03-03T03:20:43.878Z,981.01
2023-03-03T03:21:43.881Z,980.92
2023-03-03T03:22:43.853Z,980.96
2023-03-03T03:23:43.834Z,980.95
2023-03-03T03:24:43.842Z,980.99
2023-03-03T03:25:44.434Z,980.98
2023-03-03T03:26:43.814Z,981.01
2023-03-03T03:27:43.796Z,981.13
2023-03-03T03:28:43.793Z,981.13
2023-03-03T03:29:43.786Z,981.13
2023-03-03T03:30:43.781Z,981.17
2023-03-03T03:31:43.779Z,981.14
2023-03-03T03:32:43.735Z,981.13
2023-03-03T03:33:43.716Z,981.10
2023-03-03T03:34:43.726Z,981.14
2023-03-03T03:35:43.718Z,981.09
2023-03-03T03:36:43.693Z,981.08
2023-03-03T03:37:43.656Z,981.11
2023-03-03T03:38:43.661Z,981.15
2023-03-03T03:39:43.663Z,981.11
2023-03-03T03:40:43.621Z,981.13
2023-03-03T03:41:43.624Z,981.07
2023-03-03T03:42:43.603Z,981.10
2023-03-03T03:43:43.591Z,981.08
2023-03-03T03:44:43.612Z,981.13
2023-03-03T03:45:43.680Z,981.14
2023-03-03T03:46:43.565Z,981.12
2023-03-03T03:47:43.539Z,981.24
2023-03-03T03:48:43.531Z,981.14
2023-03-03T03:49:43.550Z,981.21
2023-03-03T04:03:17.041Z,981.24
2023-03-03T04:04:16.820Z,981.18
2023-03-03T04:05:16.842Z,981.24
2023-03-03T04:06:16.801Z,981.24
2023-03-03T04:07:16.780Z,981.15
2023-03-03T04:08:16.782Z,981.18
2023-03-03T04:09:16.799Z,981.21
2023-03-03T04:10:16.761Z,981.20
2023-03-03T04:11:16.758Z,981.21
2023-03-03T04:12:16.731Z,981.19
2023-03-03T04:13:16.729Z,981.23
2023-03-03T04:14:16.714Z,981.18
2023-03-03T04:15:16.735Z,981.17
2023-03-03T04:16:16.684Z,981.14
2023-03-03T04:17:16.679Z,981.19
2023-03-03T04:18:16.666Z,981.16
2023-03-03T04:19:16.634Z,981.14
2023-03-03T04:20:16.669Z,981.17
2023-03-03T04:21:16.804Z,981.20
2023-03-03T04:22:16.614Z,981.17
2023-03-03T04:23:16.597Z,981.16
2023-03-03T04:24:16.653Z,981.17
2023-03-03T04:25:16.581Z,981.19
2023-03-03T04:26:16.566Z,981.18
2023-03-03T04:27:16.543Z,981.20
2023-03-03T04:28:16.570Z,981.25
2023-03-03T04:29:16.537Z,981.26
2023-03-03T04:30:16.581Z,981.24
2023-03-03T04:31:16.544Z,981.25
2023-03-03T04:32:16.596Z,981.29
2023-03-03T04:33:16.508Z,981.30
2023-03-03T04:34:16.474Z,981.38
2023-03-03T04:35:16.712Z,981.29
2023-03-03T04:36:16.450Z,981.30
2023-03-03T04:37:16.426Z,981.28
2023-03-03T04:38:16.436Z,981.33
2023-03-03T04:39:16.401Z,981.43
2023-03-03T04:40:16.639Z,981.37
2023-03-03T04:41:16.385Z,981.34
2023-03-03T04:42:16.364Z,981.34
2023-03-03T04:43:16.359Z,981.34
2023-03-03T04:44:16.346Z,981.34
2023-03-03T04:45:16.325Z,981.33
2023-03-03T04:46:16.381Z,981.38
2023-03-03T04:47:16.351Z,981.33
2023-03-03T04:48:16.285Z,981.32
2023-03-03T04:49:16.272Z,981.32
2023-03-03T04:50:16.278Z,981.34
2023-03-03T04:51:16.256Z,981.37
2023-03-03T04:52:16.237Z,981.35
2023-03-03T04:53:16.241Z,981.35
2023-03-03T04:54:16.218Z,981.34
2023-03-03T04:55:16.206Z,981.32
2023-03-03T04:56:16.216Z,981.35
2023-03-03T04:57:16.180Z,981.31
2023-03-03T04:58:16.156Z,981.26
2023-03-03T04:59:16.161Z,981.31
2023-03-03T05:00:16.142Z,981.30
2023-03-03T05:01:16.157Z,981.36
2023-03-03T05:02:16.115Z,981.39
2023-03-03T05:03:16.093Z,981.37
2023-03-03T05:04:16.151Z,981.41
2023-03-03T05:05:16.073Z,981.40
2023-03-03T05:06:16.070Z,981.41
2023-03-03T05:07:16.086Z,981.40
2023-03-03T05:08:16.041Z,981.44
2023-03-03T05:09:16.036Z,981.47
2023-03-03T05:10:16.008Z,981.42
2023-03-03T05:11:16.027Z,981.43
2023-03-03T05:12:15.995Z,981.46
2023-03-03T05:13:15.977Z,981.40
2023-03-03T05:14:15.946Z,981.46
2023-03-03T05:15:15.946Z,981.43
2023-03-03T05:16:16.010Z,981.41
2023-03-03T05:17:15.927Z,981.43
2023-03-03T05:18:15.922Z,981.43
2023-03-03T05:19:15.901Z,981.44
2023-03-03T05:20:15.902Z,981.47
2023-03-03T05:21:15.885Z,981.44
2023-03-03T05:22:15.851Z,981.51
2023-03-03T05:23:15.860Z,981.49
2023-03-03T05:24:15.824Z,981.50
2023-03-03T05:25:15.818Z,981.45
2023-03-03T05:26:15.839Z,981.42
2023-03-03T05:27:15.810Z,981.48
2023-03-03T05:28:15.784Z,981.42
2023-03-03T05:29:15.796Z,981.47
2023-03-03T05:30:15.765Z,981.49
2023-03-03T05:31:15.789Z,981.57
2023-03-03T05:32:15.815Z,981.51
2023-03-03T05:33:15.728Z,981.51
2023-03-03T05:34:15.758Z,981.52
2023-03-03T05:35:15.698Z,981.54
2023-03-03T05:36:15.676Z,981.57
2023-03-03T05:37:15.681Z,981.51
2023-03-03T05:38:15.663Z,981.50
2023-03-03T05:39:15.653Z,981.59
2023-03-03T05:40:15.635Z,981.54
2023-03-03T05:41:15.660Z,981.55
2023-03-03T05:42:15.629Z,981.59
2023-03-03T05:43:15.594Z,981.58
2023-03-03T05:44:15.574Z,981.57
2023-03-03T05:45:15.583Z,981.59
2023-03-03T05:46:15.609Z,981.59
2023-03-03T05:47:15.551Z,981.59
2023-03-03T05:48:15.549Z,981.59
2023-03-03T05:49:15.535Z,981.60
2023-03-03T05:50:15.523Z,981.61
2023-03-03T05:51:15.523Z,981.67
2023-03-03T05:52:15.491Z,981.69
2023-03-03T05:53:15.523Z,981.70
2023-03-03T05:54:15.444Z,981.64
2023-03-03T05:55:15.444Z,981.67
2023-03-03T05:56:15.434Z,981.65
2023-03-03T05:57:15.446Z,981.72
2023-03-03T05:58:15.404Z,981.68
2023-03-03T05:59:15.422Z,981.69
2023-03-03T06:00:15.386Z,981.67
2023-03-03T06:01:15.377Z,981.71
2023-03-03T06:02:15.375Z,981.68
2023-03-03T06:03:15.375Z,981.72
2023-03-03T06:04:15.342Z,981.76
2023-03-03T06:05:15.334Z,981.75
2023-03-03T06:06:15.316Z,981.76
2023-03-03T06:07:15.326Z,981.87
2023-03-03T06:08:15.277Z,981.91
2023-03-03T06:09:15.279Z,981.82
2023-03-03T06:10:15.271Z,981.86
2023-03-03T06:11:15.246Z,981.86
2023-03-03T06:12:15.253Z,981.95
2023-03-03T06:13:15.220Z,981.85
2023-03-03T06:14:15.215Z,981.91
2023-03-03T06:15:15.243Z,981.93
2023-03-03T06:16:15.178Z,981.92
2023-03-03T06:17:15.207Z,981.91
2023-03-03T06:18:15.182Z,981.89
2023-03-03T06:19:15.157Z,981.91
2023-03-03T06:20:15.143Z,981.90
2023-03-03T06:21:15.130Z,981.90
2023-03-03T06:22:15.108Z,981.87
2023-03-03T06:23:15.135Z,981.95
2023-03-03T06:24:15.097Z,981.89
2023-03-03T06:25:15.082Z,981.88
2023-03-03T06:26:15.066Z,981.86
2023-03-03T06:27:15.049Z,981.99
2023-03-03T06:28:15.050Z,981.98
2023-03-03T06:29:15.841Z,982.04
2023-03-03T06:30:15.014Z,982.08
2023-03-03T06:31:15.075Z,982.10
2023-03-03T06:32:15.140Z,982.08
2023-03-03T06:33:15.028Z,982.16
2023-03-03T06:34:14.963Z,982.12
2023-03-03T06:35:14.961Z,982.14
2023-03-03T06:36:14.940Z,982.19
2023-03-03T06:37:14.931Z,982.20
2023-03-03T06:38:14.925Z,982.14
2023-03-03T06:39:14.912Z,982.19
2023-03-03T06:40:14.892Z,982.22
2023-03-03T06:41:14.906Z,982.21
2023-03-03T06:42:14.862Z,982.28
2023-03-03T06:43:14.879Z,982.31
2023-03-03T06:44:14.859Z,982.31
2023-03-03T06:45:14.822Z,982.36
2023-03-03T06:46:14.813Z,982.30
2023-03-03T06:47:14.815Z,982.32
2023-03-03T06:48:14.805Z,982.32
2023-03-03T06:49:14.784Z,982.28
2023-03-03T06:50:14.753Z,982.28
2023-03-03T06:51:14.761Z,982.27
2023-03-03T06:52:14.750Z,982.31
2023-03-03T06:53:14.753Z,982.29
2023-03-03T06:54:14.720Z,982.26
2023-03-03T06:55:14.704Z,982.26
2023-03-03T06:56:14.692Z,982.25
2023-03-03T06:57:14.690Z,982.21
2023-03-03T06:58:14.673Z,982.25
2023-03-03T06:59:14.671Z,982.23
2023-03-03T07:00:14.640Z,982.28
2023-03-03T07:01:14.788Z,982.20
2023-03-03T07:02:14.623Z,982.20
2023-03-03T07:03:14.636Z,982.18
2023-03-03T07:04:14.621Z,982.21
2023-03-03T07:05:14.588Z,982.22
2023-03-03T07:06:14.570Z,982.31
2023-03-03T07:07:14.562Z,982.27
2023-03-03T07:08:14.549Z,982.28
2023-03-03T07:09:14.557Z,982.38
2023-03-03T07:10:14.520Z,982.22
2023-03-03T07:11:14.521Z,982.34
2023-03-03T07:12:14.492Z,982.28
2023-03-03T07:13:14.526Z,982.31
2023-03-03T07:14:14.489Z,982.29
2023-03-03T07:15:14.481Z,982.31
2023-03-03T07:16:14.534Z,982.37
2023-03-03T07:17:14.436Z,982.43
2023-03-03T07:18:14.445Z,982.45
2023-03-03T07:19:14.430Z,982.44
2023-03-03T07:20:14.395Z,982.42
2023-03-03T07:21:14.401Z,982.45
2023-03-03T07:22:14.384Z,982.44
2023-03-03T07:23:14.398Z,982.45
2023-03-03T07:24:14.406Z,982.48
2023-03-03T07:25:14.364Z,982.53
2023-03-03T07:26:14.326Z,982.47
2023-03-03T07:27:14.319Z,982.49
2023-03-03T07:28:14.307Z,982.44
2023-03-03T07:29:14.300Z,982.51
2023-03-03T07:30:14.282Z,982.51
2023-03-03T07:31:14.343Z,982.55
2023-03-03T07:32:14.306Z,982.54
2023-03-03T07:33:14.278Z,982.57
2023-03-03T07:34:14.235Z,982.54
2023-03-03T07:35:14.267Z,982.54
2023-03-03T07:36:14.209Z,982.51
2023-03-03T07:37:14.206Z,982.58
2023-03-03T07:38:14.198Z,982.56
2023-03-03T07:39:14.200Z,982.67
2023-03-03T07:40:14.194Z,982.67
2023-03-03T07:41:14.152Z,982.68
2023-03-03T07:42:14.132Z,982.75
2023-03-03T07:43:14.151Z,982.74
2023-03-03T07:44:14.121Z,982.70
2023-03-03T07:45:14.110Z,982.71
2023-03-03T07:46:14.160Z,982.65
2023-03-03T07:47:14.065Z,982.66
2023-03-03T07:48:14.089Z,982.75
2023-03-03T07:49:14.077Z,982.72
2023-03-03T07:50:14.044Z,982.69
2023-03-03T07:51:14.021Z,982.64
2023-03-03T07:52:14.010Z,982.69
2023-03-03T07:53:14.002Z,982.68
2023-03-03T07:54:14.009Z,982.71
2023-03-03T07:55:13.980Z,982.68
2023-03-03T07:56:13.952Z,982.80
2023-03-03T07:57:13.955Z,982.74
2023-03-03T07:58:13.933Z,982.77
2023-03-03T07:59:13.932Z,982.81
2023-03-03T08:00:13.931Z,982.84
2023-03-03T08:01:13.912Z,982.88
2023-03-03T08:02:13.886Z,982.85
2023-03-03T08:03:13.887Z,982.91
2023-03-03T08:04:13.954Z,982.80
2023-03-03T08:05:13.965Z,982.90
2023-03-03T08:06:13.846Z,982.85
2023-03-03T08:07:13.834Z,982.83
2023-03-03T08:08:13.813Z,982.85
2023-03-03T08:09:13.811Z,982.79
2023-03-03T08:10:13.792Z,982.83
2023-03-03T08:11:13.780Z,982.81
2023-03-03T08:12:13.756Z,982.79
2023-03-03T08:13:13.747Z,982.87
2023-03-03T08:14:13.736Z,982.89
2023-03-03T08:15:13.735Z,982.90
2023-03-03T08:16:13.793Z,982.87
2023-03-03T08:17:13.693Z,982.86
2023-03-03T08:18:13.679Z,982.88
2023-03-03T08:19:13.698Z,982.89
2023-03-03T08:20:13.657Z,982.87
2023-03-03T08:21:13.648Z,982.91
2023-03-03T08:22:13.620Z,982.87
2023-03-03T08:23:13.607Z,982.75
2023-03-03T08:24:13.609Z,982.84
2023-03-03T08:25:13.581Z,982.77
2023-03-03T08:26:13.576Z,982.77
2023-03-03T08:27:13.588Z,982.72
2023-03-03T08:28:13.545Z,982.81
2023-03-03T08:29:13.533Z,982.81
2023-03-03T08:30:13.523Z,982.80
2023-03-03T08:31:24.952Z,982.85
2023-03-03T08:32:14.576Z,982.86
2023-03-03T08:33:13.478Z,982.80
2023-03-03T08:34:13.463Z,982.81
2023-03-03T08:35:13.491Z,982.79
2023-03-03T08:36:13.437Z,982.81
2023-03-03T08:37:13.427Z,982.82
2023-03-03T08:38:13.402Z,982.89
2023-03-03T08:39:13.397Z,982.87
2023-03-03T08:40:13.424Z,982.92
2023-03-03T08:41:13.373Z,982.96
2023-03-03T08:42:15.280Z,982.91
2023-03-03T08:43:13.346Z,982.94
2023-03-03T08:44:13.327Z,982.85
2023-03-03T08:45:13.353Z,982.86
2023-03-03T08:46:13.346Z,982.80
2023-03-03T08:47:13.296Z,982.76
2023-03-03T08:48:13.311Z,982.84
2023-03-03T08:49:13.296Z,982.83
2023-03-03T08:50:13.272Z,982.80
2023-03-03T08:51:13.269Z,982.81
2023-03-03T08:52:13.245Z,982.80
2023-03-03T08:53:13.240Z,982.85
2023-03-03T08:54:13.205Z,982.85
2023-03-03T08:55:13.230Z,982.82
2023-03-03T08:56:13.186Z,982.84
2023-03-03T08:57:13.176Z,982.78
2023-03-03T08:58:13.184Z,982.82
2023-03-03T08:59:13.148Z,982.80
2023-03-03T09:00:13.149Z,982.70
2023-03-03T09:01:13.128Z,982.77
2023-03-03T09:02:13.163Z,982.74
2023-03-03T09:03:13.106Z,982.77
2023-03-03T09:04:13.088Z,982.70
2023-03-03T09:05:13.092Z,982.81
2023-03-03T09:06:13.084Z,982.80
2023-03-03T09:07:13.047Z,982.78
2023-03-03T09:08:13.027Z,982.72
2023-03-03T09:09:13.024Z,982.78
2023-03-03T09:10:13.047Z,982.73
2023-03-03T09:11:12.999Z,982.70
2023-03-03T09:12:12.985Z,982.67
2023-03-03T09:13:12.978Z,982.68
2023-03-03T09:14:12.947Z,982.69
2023-03-03T09:15:12.945Z,982.69
2023-03-03T09:16:12.950Z,982.63
2023-03-03T09:17:12.942Z,982.69
2023-03-03T09:18:12.897Z,982.71
2023-03-03T09:19:12.888Z,982.67
2023-03-03T09:20:12.899Z,982.74
2023-03-03T09:21:12.863Z,982.74
2023-03-03T09:22:12.860Z,982.68
2023-03-03T09:23:12.858Z,982.68
2023-03-03T09:24:12.834Z,982.65
2023-03-03T09:25:12.837Z,982.65
2023-03-03T09:26:12.805Z,982.64
2023-03-03T09:27:12.799Z,982.69
2023-03-03T09:28:12.778Z,982.65
2023-03-03T09:29:12.776Z,982.71
2023-03-03T09:30:12.773Z,982.68
2023-03-03T09:31:12.757Z,982.73
2023-03-03T09:32:12.795Z,982.69
2023-03-03T09:33:12.746Z,982.66
2023-03-03T09:34:12.720Z,982.65
2023-03-03T09:35:12.719Z,982.74
2023-03-03T09:36:21.228Z,982.74
2023-03-03T09:37:15.332Z,982.71
2023-03-03T09:38:12.671Z,982.71
2023-03-03T09:39:12.642Z,982.77
2023-03-03T09:40:12.627Z,982.75
2023-03-03T09:41:12.634Z,982.66
2023-03-03T09:42:12.613Z,982.74
2023-03-03T09:43:12.577Z,982.72
2023-03-03T09:44:12.597Z,982.77
2023-03-03T09:45:12.575Z,982.79
2023-03-03T09:46:12.580Z,982.74
2023-03-03T09:47:12.551Z,982.75
2023-03-03T10:03:37.152Z,982.88
2023-03-03T10:04:37.071Z,982.91
2023-03-03T10:05:37.081Z,982.88
2023-03-03T10:06:37.060Z,982.90
2023-03-03T10:07:37.028Z,982.90
2023-03-03T10:08:37.031Z,982.86
2023-03-03T10:09:37.007Z,982.81
2023-03-03T10:10:37.028Z,982.85
2023-03-03T10:11:36.997Z,982.77
2023-03-03T10:12:37.000Z,982.76
2023-03-03T10:13:36.962Z,982.83
2023-03-03T10:14:36.963Z,982.79
2023-03-03T10:15:36.950Z,982.86
2023-03-03T10:16:36.945Z,982.90
2023-03-03T10:17:36.966Z,982.90
2023-03-03T10:18:36.920Z,982.82
2023-03-03T10:19:36.905Z,982.85
2023-03-03T10:20:49.049Z,982.76
2023-03-03T10:21:37.869Z,982.77
2023-03-03T10:22:36.857Z,982.78
2023-03-03T10:23:36.835Z,982.79
2023-03-03T10:24:36.832Z,982.75
2023-03-03T10:25:36.851Z,982.76
2023-03-03T10:26:44.973Z,982.68
2023-03-03T10:27:37.795Z,982.75
2023-03-03T10:28:36.806Z,982.73
2023-03-03T10:29:36.784Z,982.67
2023-03-03T10:30:42.597Z,982.71
2023-03-03T10:31:37.786Z,982.74
2023-03-03T10:32:36.827Z,982.71
2023-03-03T10:33:36.824Z,982.70
2023-03-03T10:34:36.724Z,982.71
2023-03-03T10:35:36.754Z,982.70
2023-03-03T10:36:36.676Z,982.66
2023-03-03T10:37:36.676Z,982.72
2023-03-03T10:38:36.650Z,982.66
2023-03-03T10:39:36.645Z,982.69
2023-03-03T10:40:36.646Z,982.67
2023-03-03T10:41:36.613Z,982.66
2023-03-03T10:42:36.616Z,982.65
2023-03-03T10:43:36.582Z,982.66
2023-03-03T10:44:36.582Z,982.56
2023-03-03T10:45:36.594Z,982.59
2023-03-03T10:46:36.544Z,982.54
2023-03-03T10:47:36.530Z,982.60
2023-03-03T10:48:38.754Z,982.65
2023-03-03T10:49:36.505Z,982.61
2023-03-03T10:50:36.533Z,982.66
2023-03-03T10:51:36.497Z,982.63
2023-03-03T10:52:36.534Z,982.65
2023-03-03T10:53:36.465Z,982.61
2023-03-03T10:54:36.445Z,982.57
2023-03-03T10:55:39.275Z,982.57
2023-03-03T10:56:51.723Z,982.55
2023-03-03T10:57:37.386Z,982.56
2023-03-03T10:58:36.428Z,982.62
2023-03-03T10:59:36.362Z,982.63
2023-03-03T11:00:36.385Z,982.56
2023-03-03T11:01:36.408Z,982.59
2023-03-03T11:02:36.345Z,982.54
2023-03-03T11:03:36.317Z,982.54
2023-03-03T11:04:36.415Z,982.52
2023-03-03T11:05:36.297Z,982.56
2023-03-03T11:06:36.306Z,982.53
2023-03-03T11:07:36.271Z,982.52
2023-03-03T11:08:36.267Z,982.55
2023-03-03T11:09:36.259Z,982.56
2023-03-03T11:10:36.242Z,982.45
2023-03-03T11:11:36.241Z,982.56
2023-03-03T11:12:36.232Z,982.50
2023-03-03T11:13:36.215Z,982.47
2023-03-03T11:14:36.202Z,982.50
2023-03-03T11:15:36.189Z,982.53
2023-03-03T11:16:36.201Z,982.53
2023-03-03T11:17:36.150Z,982.53
2023-03-03T11:18:36.154Z,982.55
2023-03-03T11:19:36.111Z,982.55
2023-03-03T11:20:36.128Z,982.49
2023-03-03T11:21:36.260Z,982.48
2023-03-03T11:22:36.083Z,982.45
2023-03-03T11:23:36.083Z,982.41
2023-03-03T11:24:36.062Z,982.37
2023-03-03T11:25:36.166Z,982.39
2023-03-03T11:26:36.053Z,982.40
2023-03-03T11:27:36.105Z,982.36
2023-03-03T11:28:36.041Z,982.30
2023-03-03T11:29:36.003Z,982.30
2023-03-03T11:30:36.020Z,982.32
2023-03-03T11:31:35.982Z,982.30
2023-03-03T11:32:36.014Z,982.28
2023-03-03T11:33:35.937Z,982.29
2023-03-03T11:34:35.977Z,982.22
2023-03-03T11:35:35.964Z,982.18
2023-03-03T11:36:35.910Z,982.14
2023-03-03T11:37:35.888Z,982.14
2023-03-03T11:38:36.056Z,982.17
2023-03-03T11:39:35.862Z,982.09
2023-03-03T11:40:35.866Z,982.10
2023-03-03T11:41:35.884Z,982.10
2023-03-03T11:42:35.921Z,982.06
2023-03-03T11:43:37.595Z,982.02
2023-03-03T11:44:35.811Z,981.99
2023-03-03T11:45:35.780Z,981.98
2023-03-03T11:46:35.859Z,982.06
2023-03-03T11:47:35.776Z,982.05
2023-03-03T11:48:35.743Z,982.01
2023-03-03T11:49:35.766Z,981.99
2023-03-03T11:50:35.811Z,981.96
2023-03-03T11:51:35.734Z,981.84
2023-03-03T11:52:35.722Z,981.93
2023-03-03T11:53:35.781Z,981.86
2023-03-03T11:54:35.665Z,981.88
2023-03-03T11:55:35.714Z,981.87
2023-03-03T11:56:35.664Z,981.74
2023-03-03T11:57:35.666Z,981.83
2023-03-03T11:58:35.669Z,981.78
2023-03-03T11:59:35.701Z,981.71
2023-03-03T12:00:35.673Z,981.68
2023-03-03T12:01:35.665Z,981.74
2023-03-03T12:02:35.817Z,981.74
2023-03-03T12:03:35.644Z,981.65
2023-03-03T12:04:35.576Z,981.66
2023-03-03T12:05:35.599Z,981.62
2023-03-03T12:06:35.528Z,981.64
2023-03-03T12:07:35.556Z,981.62
2023-03-03T12:08:35.516Z,981.58
2023-03-03T12:09:35.539Z,981.54
2023-03-03T12:10:35.489Z,981.54
2023-03-03T12:11:35.580Z,981.38
2023-03-03T12:12:35.518Z,981.49
2023-03-03T12:13:35.570Z,981.44
2023-03-03T12:14:35.461Z,981.40
2023-03-03T12:15:35.566Z,981.42
2023-03-03T12:16:35.503Z,981.40
2023-03-03T12:17:35.428Z,981.47
2023-03-03T12:18:35.411Z,981.42
2023-03-03T12:19:35.416Z,981.43
2023-03-03T12:20:35.393Z,981.43
2023-03-03T12:21:35.430Z,981.40
2023-03-03T12:22:35.612Z,981.32
2023-03-03T12:23:35.406Z,981.37
2023-03-03T12:24:35.492Z,981.32
2023-03-03T12:25:35.401Z,981.22
2023-03-03T12:26:35.363Z,981.23
2023-03-03T12:27:35.345Z,981.17
2023-03-03T12:28:35.313Z,981.05
2023-03-03T12:29:35.305Z,981.17
2023-03-03T12:30:35.318Z,981.07
2023-03-03T12:31:35.322Z,981.06
2023-03-03T12:32:35.452Z,981.09
2023-03-03T12:33:35.304Z,981.11
2023-03-03T12:34:35.347Z,980.99
2023-03-03T12:35:35.338Z,981.00
2023-03-03T12:36:35.245Z,981.05
2023-03-03T12:37:35.250Z,980.99
2023-03-03T12:38:36.230Z,980.97
2023-03-03T12:39:35.755Z,980.95
2023-03-03T12:40:35.188Z,980.97
2023-03-03T12:41:35.238Z,980.94
2023-03-03T12:42:35.286Z,980.95
2023-03-03T12:43:35.150Z,980.86
2023-03-03T12:44:35.190Z,980.87
2023-03-03T12:45:35.166Z,980.89
2023-03-03T12:46:35.337Z,980.91
2023-03-03T12:47:35.082Z,980.93
2023-03-03T12:48:35.104Z,980.88
2023-03-03T12:49:42.737Z,980.84
2023-03-03T12:50:36.058Z,980.90
2023-03-03T12:51:35.129Z,980.84
2023-03-03T12:52:35.034Z,980.83
2023-03-03T12:53:35.125Z,980.76
2023-03-03T12:54:37.965Z,980.81
2023-03-03T12:55:35.177Z,980.84
2023-03-03T12:56:35.029Z,980.82